createdAt,value
2022-10-18T00:00:56.568Z,17.42
2022-10-18T00:03:23.873Z,15.45
2022-10-18T00:05:51.473Z,17.08
2022-10-18T00:08:24.599Z,16.73
2022-10-18T00:10:51.571Z,15.45
2022-10-18T00:13:23.001Z,15.35
2022-10-18T00:15:58.323Z,15.90
2022-10-18T00:18:25.617Z,14.68
2022-10-18T00:21:09.708Z,14.52
2022-10-18T00:23:36.989Z,16.23
2022-10-18T00:26:24.178Z,15.95
2022-10-18T00:28:55.548Z,19.45
2022-10-18T00:31:35.766Z,18.83
2022-10-18T00:34:10.624Z,15.27
2022-10-18T00:36:37.981Z,17.40
2022-10-18T00:39:07.075Z,17.20
2022-10-18T00:41:36.504Z,17.90
2022-10-18T00:44:26.895Z,18.42
2022-10-18T00:47:00.551Z,14.43
2022-10-18T00:49:39.912Z,15.45
2022-10-18T00:52:15.465Z,16.02
2022-10-18T00:54:44.847Z,16.45
2022-10-18T00:57:12.852Z,17.00
2022-10-18T00:59:41.372Z,20.77
2022-10-18T01:02:08.931Z,15.52
2022-10-18T01:04:36.432Z,18.00
2022-10-18T01:07:27.305Z,13.82
2022-10-18T01:10:27.296Z,15.70
2022-10-18T01:13:51.337Z,16.00
2022-10-18T01:16:38.428Z,16.95
2022-10-18T01:24:54.846Z,10.20
2022-10-18T01:27:49.169Z,10.50
2022-10-18T01:30:32.801Z,11.80
2022-10-18T01:33:25.654Z,8.70
2022-10-18T01:36:15.659Z,10.60
2022-10-18T01:38:44.189Z,10.57
2022-10-18T01:41:15.721Z,10.50
2022-10-18T01:43:45.498Z,8.25
2022-10-18T01:46:18.396Z,8.32
2022-10-18T01:48:46.099Z,10.95
2022-10-18T01:51:12.899Z,8.07
2022-10-18T01:53:40.334Z,9.75
2022-10-18T01:56:34.133Z,9.95
2022-10-18T01:59:34.864Z,7.72
2022-10-18T02:02:44.304Z,10.05
2022-10-18T02:05:46.577Z,9.77
2022-10-18T02:08:42.962Z,8.32
2022-10-18T02:11:13.797Z,9.93
2022-10-18T02:14:13.259Z,10.00
2022-10-18T02:16:49.997Z,7.05
2022-10-18T02:19:41.151Z,14.05
2022-10-18T02:22:11.210Z,9.43
2022-10-18T02:24:45.023Z,9.43
2022-10-18T02:27:12.458Z,11.35
2022-10-18T02:29:41.064Z,14.95
2022-10-18T02:32:30.920Z,10.18
2022-10-18T02:35:20.563Z,11.65
2022-10-18T02:37:49.286Z,11.95
2022-10-18T02:40:20.290Z,9.52
2022-10-18T02:42:55.619Z,10.65
2022-10-18T02:48:14.600Z,9.63
2022-10-18T02:50:41.535Z,9.35
2022-10-18T02:53:08.620Z,9.40
2022-10-18T02:55:35.620Z,8.57
2022-10-18T02:58:02.532Z,8.38
2022-10-18T03:00:29.349Z,9.95
2022-10-18T03:02:56.760Z,9.18
2022-10-18T03:05:23.628Z,11.80
2022-10-18T03:07:51.115Z,9.13
2022-10-18T03:10:17.984Z,12.25
2022-10-18T03:12:44.895Z,9.05
2022-10-18T03:15:12.027Z,11.32
2022-10-18T03:17:38.894Z,10.75
2022-10-18T03:20:06.594Z,9.25
2022-10-18T03:22:39.682Z,8.70
2022-10-18T03:25:09.654Z,9.65
2022-10-18T03:30:27.860Z,8.93
2022-10-18T03:32:54.777Z,10.27
2022-10-18T03:35:22.425Z,8.02
2022-10-18T03:37:49.642Z,9.77
2022-10-18T03:40:17.106Z,11.55
2022-10-18T03:42:44.261Z,9.75
2022-10-18T03:45:11.288Z,9.82
2022-10-18T03:47:38.235Z,10.30
2022-10-18T03:50:05.933Z,11.90
2022-10-18T03:52:33.626Z,9.70
2022-10-18T03:55:00.829Z,12.00
2022-10-18T03:57:27.793Z,9.75
2022-10-18T03:59:54.715Z,11.25
2022-10-18T04:02:21.669Z,16.27
2022-10-18T04:04:49.445Z,10.45
2022-10-18T04:07:16.333Z,11.13
2022-10-18T04:09:43.211Z,11.05
2022-10-18T04:12:10.142Z,12.07
2022-10-18T04:14:37.192Z,12.18
2022-10-18T04:17:05.156Z,8.73
2022-10-18T04:19:32.077Z,10.55
2022-10-18T04:21:59.354Z,10.10
2022-10-18T04:24:26.381Z,9.02
2022-10-18T04:26:53.475Z,8.38
2022-10-18T04:29:20.332Z,11.77
2022-10-18T04:31:47.225Z,9.43
2022-10-18T04:34:14.412Z,9.13
2022-10-18T04:36:41.292Z,9.38
2022-10-18T04:39:08.147Z,11.30
2022-10-18T04:41:35.339Z,10.57
2022-10-18T04:44:02.190Z,9.25
2022-10-18T04:46:29.227Z,10.40
2022-10-18T04:48:56.182Z,12.13
2022-10-18T04:51:23.144Z,9.65
2022-10-18T04:53:50.167Z,10.63
2022-10-18T04:56:17.031Z,12.30
2022-10-18T04:58:43.824Z,11.02
2022-10-18T05:01:11.126Z,9.77
2022-10-18T05:03:38.135Z,8.68
2022-10-18T05:06:05.807Z,8.98
2022-10-18T05:08:35.286Z,9.65
2022-10-18T05:11:03.748Z,7.22
2022-10-18T05:16:21.853Z,6.90
2022-10-18T05:18:48.879Z,9.25
2022-10-18T05:21:16.767Z,7.13
2022-10-18T05:23:43.629Z,7.85
2022-10-18T05:26:11.285Z,6.93
2022-10-18T05:28:40.243Z,7.97
2022-10-18T05:31:09.833Z,8.50
2022-10-18T05:33:36.918Z,6.55
2022-10-18T05:36:04.336Z,8.38
2022-10-18T05:38:31.451Z,6.88
2022-10-18T05:40:59.474Z,6.32
2022-10-18T05:43:29.802Z,7.85
2022-10-18T05:45:57.073Z,9.30
2022-10-18T05:48:24.678Z,8.77
2022-10-18T05:50:51.769Z,9.00
2022-10-18T05:53:35.618Z,9.02
2022-10-18T05:56:05.504Z,9.32
2022-10-18T05:58:32.470Z,11.02
2022-10-18T06:01:04.753Z,8.45
2022-10-18T06:03:32.678Z,6.63
2022-10-18T06:06:00.944Z,9.38
2022-10-18T06:08:27.908Z,9.15
2022-10-18T06:10:54.730Z,10.10
2022-10-18T06:13:21.911Z,13.23
2022-10-18T06:15:49.073Z,11.88
2022-10-18T06:18:16.457Z,12.38
2022-10-18T06:20:43.242Z,17.70
2022-10-18T06:23:10.204Z,9.00
2022-10-18T06:25:37.119Z,8.82
2022-10-18T06:28:10.137Z,9.98
2022-10-18T06:30:39.028Z,12.15
2022-10-18T06:33:05.974Z,11.98
2022-10-18T06:35:33.899Z,12.20
2022-10-18T06:38:00.989Z,11.70
2022-10-18T06:40:27.769Z,11.57
2022-10-18T06:43:00.515Z,10.75
2022-10-18T06:45:37.437Z,15.43
2022-10-18T06:48:04.618Z,11.85
2022-10-18T06:50:31.815Z,12.93
2022-10-18T06:52:58.993Z,14.43
2022-10-18T06:55:26.021Z,15.95
2022-10-18T06:57:53.587Z,13.63
2022-10-18T07:00:20.506Z,9.75
2022-10-18T07:02:47.564Z,11.88
2022-10-18T07:05:14.414Z,10.93
2022-10-18T07:07:41.314Z,16.27
2022-10-18T07:10:12.622Z,13.05
2022-10-18T07:12:39.732Z,14.57
2022-10-18T07:15:09.542Z,12.50
2022-10-18T07:17:37.069Z,13.15
2022-10-18T07:20:04.287Z,15.23
2022-10-18T07:22:31.301Z,12.45
2022-10-18T07:24:58.119Z,12.52
2022-10-18T07:27:25.171Z,12.40
2022-10-18T07:29:52.294Z,17.13
2022-10-18T07:32:19.488Z,11.95
2022-10-18T07:34:46.574Z,17.27
2022-10-18T07:37:13.522Z,13.25
2022-10-18T07:39:40.643Z,15.60
2022-10-18T07:42:07.652Z,16.95
2022-10-18T07:44:34.639Z,15.23
2022-10-18T07:47:01.776Z,21.25
2022-10-18T07:49:28.918Z,12.60
2022-10-18T07:51:55.893Z,12.90
2022-10-18T07:54:22.910Z,14.43
2022-10-18T07:56:49.765Z,16.95
2022-10-18T07:59:16.778Z,14.13
2022-10-18T08:01:43.900Z,15.30
2022-10-18T08:04:16.074Z,17.77
2022-10-18T08:06:43.545Z,14.27
2022-10-18T08:09:10.554Z,16.10
2022-10-18T08:11:37.425Z,13.73
2022-10-18T08:14:04.449Z,19.90
2022-10-18T08:18:59.790Z,17.83
2022-10-18T08:21:27.409Z,13.60
2022-10-18T08:23:54.407Z,12.68
2022-10-18T08:26:23.322Z,12.80
2022-10-18T08:29:03.641Z,15.52
2022-10-18T08:31:38.145Z,22.13
2022-10-18T08:34:05.202Z,13.85
2022-10-18T08:36:32.229Z,20.67
2022-10-18T08:38:59.411Z,15.43
2022-10-18T08:41:39.012Z,20.45
2022-10-18T08:44:19.768Z,15.23
2022-10-18T08:46:51.356Z,17.73
2022-10-18T08:49:47.135Z,14.65
2022-10-18T08:52:41.700Z,13.93
2022-10-18T08:55:36.484Z,15.05
2022-10-18T08:58:15.120Z,14.80
2022-10-18T09:00:58.679Z,14.20
2022-10-18T09:04:13.430Z,15.30
2022-10-18T09:07:08.139Z,15.98
2022-10-18T09:10:33.802Z,14.10
2022-10-18T09:13:41.250Z,11.80
2022-10-18T09:16:22.366Z,8.27
2022-10-18T09:19:30.933Z,8.85
2022-10-18T09:22:17.624Z,8.05
2022-10-18T09:25:22.888Z,12.30
2022-10-18T09:27:55.153Z,12.18
2022-10-18T09:31:09.621Z,14.25
2022-10-18T09:33:53.659Z,9.82
2022-10-18T09:36:30.490Z,10.35
2022-10-18T09:39:03.780Z,7.68
2022-10-18T09:41:53.772Z,9.73
2022-10-18T09:44:30.606Z,10.10
2022-10-18T09:47:13.411Z,11.10
2022-10-18T09:49:48.012Z,11.43
2022-10-18T09:52:39.903Z,9.73
2022-10-18T09:55:20.686Z,17.80
2022-10-18T09:57:53.635Z,11.10
2022-10-18T10:00:31.730Z,7.70
2022-10-18T10:03:01.914Z,12.20
2022-10-18T10:05:28.927Z,14.80
2022-10-18T10:08:02.038Z,8.93
2022-10-18T10:10:31.651Z,8.05
2022-10-18T10:13:26.332Z,11.70
2022-10-18T10:16:03.676Z,8.98
2022-10-18T10:18:40.312Z,11.05
2022-10-18T10:24:07.167Z,9.43
2022-10-18T10:26:36.549Z,11.10
2022-10-18T10:29:04.408Z,10.15
2022-10-18T10:31:33.807Z,12.45
2022-10-18T10:34:14.725Z,11.65
2022-10-18T10:36:51.371Z,13.00
2022-10-18T10:39:20.885Z,19.30
2022-10-18T10:41:50.783Z,16.17
2022-10-18T10:44:24.470Z,23.10
2022-10-18T10:46:52.572Z,8.95
2022-10-18T10:49:44.086Z,9.20
2022-10-18T10:52:28.613Z,13.35
2022-10-18T10:57:48.149Z,17.67
2022-10-18T11:00:33.862Z,10.63
2022-10-18T11:03:28.005Z,11.63
2022-10-18T11:05:57.840Z,19.02
2022-10-18T11:08:30.414Z,12.18
2022-10-18T11:11:27.697Z,11.88
2022-10-18T11:14:24.566Z,11.80
2022-10-18T11:17:12.171Z,14.40
2022-10-18T11:20:06.875Z,11.38
2022-10-18T11:22:41.526Z,11.43
2022-10-18T11:25:15.988Z,10.48
2022-10-18T11:28:49.912Z,10.32
2022-10-18T11:32:00.548Z,13.48
2022-10-18T11:38:45.937Z,12.55
2022-10-18T11:41:36.556Z,12.57
2022-10-18T11:44:21.217Z,10.95
2022-10-18T11:47:08.292Z,13.73
2022-10-18T11:50:12.822Z,10.85
2022-10-18T11:52:50.075Z,12.93
2022-10-18T11:55:47.261Z,12.23
2022-10-18T11:58:48.961Z,11.10
2022-10-18T12:01:38.556Z,9.93
2022-10-18T12:04:17.855Z,8.97
2022-10-18T12:06:49.015Z,11.77
2022-10-18T12:09:27.920Z,11.27
2022-10-18T12:12:06.648Z,12.05
2022-10-18T12:14:40.817Z,9.50
2022-10-18T12:17:42.071Z,10.68
2022-10-18T12:20:36.073Z,9.05
2022-10-18T12:23:13.561Z,10.27
2022-10-18T12:25:46.010Z,9.80
2022-10-18T12:29:16.807Z,11.32
2022-10-18T12:31:50.435Z,10.10
2022-10-18T12:34:23.598Z,8.98
2022-10-18T12:37:21.565Z,8.13
2022-10-18T12:40:18.501Z,13.80
2022-10-18T12:42:50.727Z,7.63
2022-10-18T12:45:35.253Z,8.88
2022-10-18T12:48:27.985Z,9.55
2022-10-18T12:51:04.863Z,9.05
2022-10-18T12:53:33.544Z,12.40
2022-10-18T12:56:28.339Z,11.55
2022-10-18T12:59:17.096Z,9.07
2022-10-18T13:01:53.518Z,7.95
2022-10-18T13:07:11.923Z,7.45
2022-10-18T13:10:16.387Z,8.02
2022-10-18T13:13:39.228Z,8.57
2022-10-18T13:16:38.207Z,7.65
2022-10-18T13:19:20.821Z,12.57
2022-10-18T13:21:59.005Z,10.55
2022-10-18T13:25:04.245Z,10.50
2022-10-18T13:28:02.554Z,8.70
2022-10-18T13:31:27.661Z,8.65
2022-10-18T13:33:54.895Z,7.72
2022-10-18T13:36:29.539Z,8.98
2022-10-18T13:38:57.592Z,9.40
2022-10-18T13:41:43.538Z,12.93
2022-10-18T13:44:33.268Z,9.27
2022-10-18T13:47:32.678Z,13.40
2022-10-18T13:50:17.250Z,10.25
2022-10-18T13:53:02.415Z,11.57
2022-10-18T13:55:44.655Z,10.20
2022-10-18T13:59:05.703Z,9.85
2022-10-18T14:02:10.316Z,13.02
2022-10-18T14:05:42.009Z,14.55
2022-10-18T14:08:52.292Z,11.63
2022-10-18T14:14:38.182Z,8.00
2022-10-18T14:17:29.990Z,17.70
2022-10-18T14:20:01.699Z,10.15
2022-10-18T14:22:46.563Z,12.20
2022-10-18T14:25:26.801Z,15.43
2022-10-18T14:28:27.342Z,11.43
2022-10-18T14:31:07.394Z,13.30
2022-10-18T14:33:57.912Z,11.27
2022-10-18T14:36:30.397Z,17.42
2022-10-18T14:39:03.695Z,14.23
2022-10-18T14:41:37.564Z,11.77
2022-10-18T14:44:19.289Z,17.13
2022-10-18T14:46:59.908Z,12.63
2022-10-18T14:49:27.219Z,13.05
2022-10-18T14:51:58.687Z,12.43
2022-10-18T14:54:36.830Z,12.60
2022-10-18T14:57:05.846Z,12.90
2022-10-18T14:59:52.014Z,11.80
2022-10-18T15:02:25.857Z,12.68
2022-10-18T15:05:16.007Z,11.80
2022-10-18T15:07:43.931Z,9.90
2022-10-18T15:10:26.797Z,15.68
2022-10-18T15:15:46.810Z,13.25
2022-10-18T15:18:23.986Z,12.57
2022-10-18T15:21:24.724Z,12.88
2022-10-18T15:23:54.143Z,12.23
2022-10-18T15:26:30.291Z,15.27
2022-10-18T15:29:01.458Z,14.45
2022-10-18T15:31:43.031Z,14.35
2022-10-18T15:34:26.120Z,13.57
2022-10-18T15:36:55.822Z,11.98
2022-10-18T15:39:31.007Z,14.63
2022-10-18T15:42:00.087Z,16.13
2022-10-18T15:44:34.644Z,13.00
2022-10-18T15:47:13.906Z,15.57
2022-10-18T15:49:51.444Z,14.75
2022-10-18T15:52:37.754Z,15.50
2022-10-18T15:58:16.957Z,17.90
2022-10-18T16:00:47.442Z,15.30
2022-10-18T16:06:12.325Z,18.85
2022-10-18T16:08:49.093Z,19.85
2022-10-18T16:11:22.994Z,20.23
2022-10-18T16:13:54.016Z,19.38
2022-10-18T16:16:26.727Z,16.27
2022-10-18T16:18:53.846Z,14.82
2022-10-18T16:21:24.028Z,16.25
2022-10-18T16:23:51.521Z,15.82
2022-10-18T16:26:20.076Z,18.90
2022-10-18T16:28:49.217Z,19.27
2022-10-18T16:31:26.312Z,23.42
2022-10-18T16:33:54.957Z,18.15
2022-10-18T16:36:29.316Z,21.17
2022-10-18T16:39:09.882Z,20.67
2022-10-18T16:41:41.640Z,21.88
2022-10-18T16:44:08.833Z,15.63
2022-10-18T16:46:39.254Z,17.60
2022-10-18T16:49:07.685Z,27.52
2022-10-18T16:51:34.682Z,18.27
2022-10-18T16:54:01.858Z,20.25
2022-10-18T16:56:34.208Z,20.95
2022-10-18T16:59:05.161Z,17.33
2022-10-18T17:01:32.162Z,22.77
2022-10-18T17:03:59.064Z,19.20
2022-10-18T17:06:29.732Z,24.73
2022-10-18T17:08:57.355Z,18.95
2022-10-18T17:11:27.527Z,20.35
2022-10-18T17:13:55.037Z,24.80
2022-10-18T17:19:20.397Z,22.55
2022-10-18T17:21:47.415Z,22.13
2022-10-18T17:24:20.704Z,33.08
2022-10-18T17:27:12.435Z,36.90
2022-10-18T17:29:40.881Z,36.05
2022-10-18T17:35:24.827Z,25.42
2022-10-18T17:38:16.574Z,23.65
2022-10-18T17:40:43.512Z,23.38
2022-10-18T17:43:13.191Z,24.48
2022-10-18T17:46:05.229Z,29.63
2022-10-18T17:48:32.144Z,25.20
2022-10-18T17:50:59.314Z,31.23
2022-10-18T17:53:30.736Z,29.50
2022-10-18T17:56:02.401Z,27.38
2022-10-18T17:58:30.953Z,30.98
2022-10-18T18:01:15.797Z,25.05
2022-10-18T18:03:47.804Z,24.88
2022-10-18T18:06:40.878Z,21.92
2022-10-18T18:09:11.622Z,24.08
2022-10-18T18:11:42.263Z,25.33
2022-10-18T18:14:11.193Z,26.90
2022-10-18T18:16:45.166Z,23.65
2022-10-18T18:19:17.499Z,23.10
2022-10-18T18:21:44.788Z,31.35
2022-10-18T18:24:13.971Z,23.60
2022-10-18T18:26:42.826Z,24.67
2022-10-18T18:29:12.538Z,26.08
2022-10-18T18:31:43.441Z,24.35
2022-10-18T18:34:11.564Z,25.42
2022-10-18T18:36:39.538Z,23.75
2022-10-18T18:39:07.255Z,23.00
2022-10-18T18:41:34.809Z,23.13
2022-10-18T18:44:04.959Z,25.83
2022-10-18T18:46:39.341Z,23.70
2022-10-18T18:49:07.839Z,25.23
2022-10-18T18:51:37.981Z,21.40
2022-10-18T18:54:06.087Z,25.70
2022-10-18T18:56:33.355Z,18.80
2022-10-18T18:59:00.697Z,31.10
2022-10-18T19:01:32.102Z,19.42
2022-10-18T19:04:00.260Z,20.38
2022-10-18T19:06:39.551Z,25.67
2022-10-18T19:09:19.717Z,26.45
2022-10-18T19:11:49.152Z,20.50
2022-10-18T19:14:16.713Z,21.65
2022-10-18T19:16:48.825Z,18.98
2022-10-18T19:19:19.943Z,23.83
2022-10-18T19:21:52.570Z,18.08
2022-10-18T19:24:21.720Z,24.67
2022-10-18T19:27:04.841Z,19.02
2022-10-18T19:29:38.144Z,15.13
2022-10-18T19:32:12.228Z,18.95
2022-10-18T19:34:39.585Z,14.48
2022-10-18T19:37:06.572Z,17.90
2022-10-18T19:39:35.161Z,18.52
2022-10-18T19:42:06.624Z,17.08
2022-10-18T19:44:35.974Z,15.13
2022-10-18T19:47:10.120Z,18.65
2022-10-18T19:49:38.777Z,15.30
2022-10-18T19:52:05.901Z,21.75
2022-10-18T19:54:57.936Z,14.02
2022-10-18T19:57:49.963Z,18.38
2022-10-18T20:03:10.462Z,16.80
2022-10-18T20:05:37.390Z,18.25
2022-10-18T20:08:04.408Z,15.88
2022-10-18T20:10:31.829Z,16.65
2022-10-18T20:12:59.191Z,10.20
2022-10-18T20:15:27.001Z,16.90
2022-10-18T20:17:54.198Z,15.15
2022-10-18T20:20:21.039Z,13.93
2022-10-18T20:22:48.127Z,15.55
2022-10-18T20:25:15.284Z,12.45
2022-10-18T20:27:42.079Z,13.95
2022-10-18T20:30:11.383Z,12.20
2022-10-18T20:32:38.651Z,15.27
2022-10-18T20:35:06.135Z,20.60
2022-10-18T20:37:33.938Z,12.93
2022-10-18T20:40:01.076Z,14.85
2022-10-18T20:42:27.954Z,16.63
2022-10-18T20:44:54.894Z,13.88
2022-10-18T20:47:22.009Z,11.32
2022-10-18T20:49:48.882Z,11.18
2022-10-18T20:52:16.107Z,12.98
2022-10-18T20:54:42.977Z,12.23
2022-10-18T20:57:09.980Z,18.05
2022-10-18T20:59:37.795Z,13.20
2022-10-18T21:02:04.671Z,11.32
2022-10-18T21:04:31.709Z,12.55
2022-10-18T21:07:00.405Z,13.23
2022-10-18T21:09:27.284Z,10.48
2022-10-18T21:11:54.612Z,16.23
2022-10-18T21:14:23.601Z,10.18
2022-10-18T21:16:52.347Z,10.40
2022-10-18T21:19:26.086Z,19.48
2022-10-18T21:21:57.239Z,15.45
2022-10-18T21:24:26.551Z,14.07
2022-10-18T21:26:53.582Z,16.20
2022-10-18T21:29:22.638Z,14.30
2022-10-18T21:31:53.869Z,12.38
2022-10-18T21:34:21.082Z,9.52
2022-10-18T21:36:48.732Z,9.68
2022-10-18T21:39:20.191Z,17.83
2022-10-18T21:41:47.521Z,13.68
2022-10-18T21:44:14.872Z,12.90
2022-10-18T21:46:46.856Z,13.32
2022-10-18T21:49:14.835Z,12.27
2022-10-18T21:51:42.780Z,10.38
2022-10-18T21:54:15.735Z,13.13
2022-10-18T21:56:43.186Z,11.40
2022-10-18T21:59:12.260Z,10.85
2022-10-18T22:01:40.725Z,12.70
2022-10-18T22:04:21.050Z,14.27
2022-10-18T22:06:48.309Z,12.73
2022-10-18T22:09:16.049Z,9.50
2022-10-18T22:11:48.019Z,11.85
2022-10-18T22:14:14.988Z,9.55
2022-10-18T22:16:42.267Z,16.90
2022-10-18T22:19:09.308Z,8.00
2022-10-18T22:21:36.293Z,12.98
2022-10-18T22:24:09.139Z,16.67
2022-10-18T22:26:39.346Z,11.88
2022-10-18T22:29:19.829Z,14.93
2022-10-18T22:31:53.386Z,18.50
2022-10-18T22:34:28.870Z,15.38
2022-10-18T22:39:47.746Z,6.75
2022-10-18T22:42:14.601Z,11.63
2022-10-18T22:47:33.016Z,11.63
2022-10-18T22:50:00.281Z,8.35
2022-10-18T22:52:27.085Z,8.52
2022-10-18T22:54:54.234Z,7.20
2022-10-18T22:57:21.096Z,11.20
2022-10-18T22:59:47.976Z,9.90
2022-10-18T23:02:15.068Z,12.15
2022-10-18T23:04:41.934Z,14.45
2022-10-18T23:07:08.893Z,16.45
2022-10-18T23:09:37.945Z,9.77
2022-10-18T23:12:04.828Z,8.68
2022-10-18T23:14:31.910Z,6.20
2022-10-18T23:16:59.093Z,11.43
2022-10-18T23:19:25.967Z,13.90
2022-10-18T23:21:53.140Z,11.93
2022-10-18T23:24:19.938Z,7.40
2022-10-18T23:26:50.735Z,7.32
2022-10-18T23:29:17.511Z,14.35
2022-10-18T23:31:44.574Z,11.35
2022-10-18T23:34:12.607Z,12.70
2022-10-18T23:36:39.535Z,8.40
2022-10-18T23:39:06.400Z,11.95
2022-10-18T23:41:36.946Z,12.15
2022-10-18T23:44:03.875Z,11.75
2022-10-18T23:46:30.692Z,10.65
2022-10-18T23:48:57.604Z,9.45
2022-10-18T23:51:24.400Z,11.50
2022-10-18T23:53:51.432Z,9.52
2022-10-18T23:56:19.140Z,10.55
2022-10-18T23:58:46.394Z,19.35
